Pagina principale
METAR-TAF:

METAR-TAF

Aeroporti :

Lahr, Germania

latitudine: 48-22-09N, longitudine: 007-49-40E, altezza: 156 m

Osservazione

Il bollettino è stato emesso 21 minuti fa, alle 15:50 UTC
Vento 15 kt da ovest
Temperature 18°C
Umidità 39%
Pressione 1007 hPa
Visibilità 10 km o più
nessuna nube inferiore a 1500 m e nessun cumulonembo

METAR: EDTL 151550Z 26015KT CAVOK 18/04 Q1007

Ora: 18:11 (16:11 UTC)

Previsione

Il bollettino è stato emesso 2 ore e 11 minuti fa, alle 14:00 UTC
Previsione valida dal 15 alle 15 UTC al 15 alle 24 UTC
Vento 15 kt da ovest con raffiche fino a 30 kt
Visibilità 10 km o più
Poco nuvoloso ad un'altezza di 4500 ft
Temporaneamente
dal 15 alle 19 UTC al 15 alle 21 UTC
Visibilità: 4000 m
Nuvoloso ad un'altezza di 3500 ft, Cumulonembo.
rovesci di pioggia,

TAF: EDTL 151400Z 1515/1524 26015G30KT 9999 FEW045 TEMPO 1519/1521 4000 SHRA BKN035CB

Osservazioni e previsioni meteorologiche di più di 4000 aeroporti (messaggi METAR e TAF).

Le stazioni disponibili sono rappresentate dai dischi gialli e rossi sulla carta.

Puntare il mouse per vedere il nome della stazione.

Clicca sopra per visualizzare le osservazioni e previsioni meteorologiche.

Per cambiare la mappa : fare clic sui pulsanti verdi con una croce nera per ingrandire, il pulsante verde con un trattino per diminuire, o sulla freccia verde per le mappe adiacenti.


METAR-TAF: